createdAt,value
2022-08-09T00:00:19.824Z,13.3
2022-08-09T00:06:37.608Z,13.1
2022-08-09T00:09:15.934Z,13
2022-08-09T00:12:26.804Z,12.9
2022-08-09T00:15:58.234Z,12.9
2022-08-09T00:18:23.591Z,12.8
2022-08-09T00:21:15.475Z,12.7
2022-08-09T00:24:12.537Z,12.6
2022-08-09T00:27:10.645Z,12.4
2022-08-09T00:30:35.814Z,12.4
2022-08-09T00:33:10.304Z,12.2
2022-08-09T00:36:10.507Z,12.2
2022-08-09T00:45:27.744Z,12.4
2022-08-09T00:48:19.406Z,12.4
2022-08-09T00:51:20.297Z,12.4
2022-08-09T00:54:11.933Z,12.5
2022-08-09T00:57:36.088Z,12.5
2022-08-09T01:00:30.148Z,12.4
2022-08-09T01:03:11.790Z,12.4
2022-08-09T01:06:55.697Z,12.2
2022-08-09T01:09:15.401Z,12
2022-08-09T01:12:18.334Z,11.8
2022-08-09T01:15:23.484Z,11.7
2022-08-09T01:18:16.490Z,11.7
2022-08-09T01:21:14.184Z,11.6
2022-08-09T01:24:14.300Z,11.6
2022-08-09T01:27:12.181Z,11.6
2022-08-09T01:30:52.000Z,11.7
2022-08-09T01:33:12.245Z,11.6
2022-08-09T01:36:11.641Z,11.6
2022-08-09T01:39:09.528Z,11.6
2022-08-09T01:42:23.448Z,11.6
2022-08-09T01:45:12.300Z,11.4
2022-08-09T01:48:19.775Z,11.4
2022-08-09T01:51:26.077Z,11.3
2022-08-09T01:54:12.121Z,11.2
2022-08-09T01:57:17.170Z,11.2
2022-08-09T02:00:50.413Z,11.2
2022-08-09T02:03:15.945Z,11.2
2022-08-09T02:06:17.888Z,11.3
2022-08-09T02:09:11.982Z,11.4
2022-08-09T02:12:21.156Z,11.4
2022-08-09T02:15:19.805Z,11.4
2022-08-09T02:18:20.853Z,11.6
2022-08-09T02:21:10.386Z,11.8
2022-08-09T02:24:11.238Z,11.9
2022-08-09T02:27:13.682Z,11.9
2022-08-09T02:30:13.389Z,12
2022-08-09T02:33:19.130Z,11.9
2022-08-09T02:36:20.590Z,11.9
2022-08-09T02:39:33.890Z,11.9
2022-08-09T02:42:12.453Z,11.9
2022-08-09T02:45:11.665Z,11.9
2022-08-09T02:48:33.042Z,12
2022-08-09T02:51:13.679Z,12
2022-08-09T02:54:14.413Z,12.1
2022-08-09T02:58:00.791Z,12.1
2022-08-09T03:00:47.921Z,12
2022-08-09T03:03:13.440Z,11.9
2022-08-09T03:06:11.897Z,11.9
2022-08-09T03:09:10.224Z,11.8
2022-08-09T03:12:22.257Z,11.8
2022-08-09T03:15:13.650Z,11.8
2022-08-09T03:18:33.480Z,11.8
2022-08-09T03:21:09.232Z,11.8
2022-08-09T03:25:00.313Z,11.8
2022-08-09T03:27:21.274Z,11.8
2022-08-09T03:30:36.643Z,11.6
2022-08-09T03:33:25.070Z,11.6
2022-08-09T03:36:33.005Z,11.6
2022-08-09T03:39:09.563Z,11.6
2022-08-09T03:42:21.342Z,11.5
2022-08-09T03:45:10.062Z,11.4
2022-08-09T03:48:18.902Z,11.4
2022-08-09T03:54:17.020Z,11.4
2022-08-09T03:57:25.209Z,11.4
2022-08-09T04:00:13.411Z,11.4
2022-08-09T04:03:35.719Z,11.3
2022-08-09T04:06:16.200Z,11.3
2022-08-09T04:09:55.152Z,11.3
2022-08-09T04:12:33.770Z,11.3
2022-08-09T04:18:16.816Z,11.3
2022-08-09T04:21:11.228Z,11.4
2022-08-09T04:24:13.579Z,11.5
2022-08-09T04:27:13.029Z,11.5
2022-08-09T04:30:11.746Z,11.5
2022-08-09T04:33:12.058Z,11.6
2022-08-09T04:36:13.152Z,11.7
2022-08-09T04:39:10.119Z,11.7
2022-08-09T04:42:20.763Z,11.7
2022-08-09T04:45:09.418Z,11.7
2022-08-09T04:48:19.976Z,11.7
2022-08-09T04:51:10.146Z,11.7
2022-08-09T04:54:10.097Z,11.8
2022-08-09T04:57:25.990Z,11.8
2022-08-09T05:00:12.134Z,11.9
2022-08-09T05:06:37.831Z,12
2022-08-09T05:09:14.516Z,12.1
2022-08-09T05:12:11.043Z,12.2
2022-08-09T05:15:52.420Z,12.3
2022-08-09T05:21:36.550Z,12.4
2022-08-09T05:24:13.947Z,12.5
2022-08-09T05:27:09.876Z,12.6
2022-08-09T05:30:12.192Z,12.8
2022-08-09T05:33:18.590Z,12.9
2022-08-09T05:36:13.234Z,13.3
2022-08-09T05:39:13.895Z,14
2022-08-09T05:42:27.936Z,14.9
2022-08-09T05:45:10.724Z,15.6
2022-08-09T05:48:13.866Z,16.2
2022-08-09T05:51:56.510Z,16.9
2022-08-09T05:54:14.648Z,17.9
2022-08-09T05:57:21.114Z,18.7
2022-08-09T06:00:13.280Z,18.9
2022-08-09T06:03:22.180Z,19
2022-08-09T06:06:15.958Z,19.5
2022-08-09T06:12:13.600Z,20.8
2022-08-09T06:15:16.844Z,21.1
2022-08-09T06:18:17.896Z,21.5
2022-08-09T06:21:12.417Z,22.1
2022-08-09T06:24:11.749Z,22.6
2022-08-09T06:27:10.021Z,22.7
2022-08-09T06:30:22.022Z,23.6
2022-08-09T06:34:00.059Z,23.6
2022-08-09T06:36:17.600Z,23.4
2022-08-09T06:39:22.744Z,23
2022-08-09T06:42:24.608Z,23.1
2022-08-09T06:48:11.236Z,24.2
2022-08-09T06:51:16.902Z,24.7
2022-08-09T06:54:22.465Z,24.7
2022-08-09T06:57:13.542Z,25.6
2022-08-09T07:03:16.140Z,25.5
2022-08-09T07:06:16.340Z,24.6
2022-08-09T07:10:02.573Z,24.3
2022-08-09T07:12:17.765Z,24.7
2022-08-09T07:18:19.449Z,26
2022-08-09T07:21:14.486Z,26.4
2022-08-09T07:24:15.079Z,26.4
2022-08-09T07:27:42.471Z,26.4
2022-08-09T07:30:09.836Z,25.9
2022-08-09T07:33:22.230Z,25.3
2022-08-09T07:36:14.748Z,25.4
2022-08-09T07:39:44.823Z,25.6
2022-08-09T07:42:11.621Z,26
2022-08-09T07:45:47.359Z,26.2
2022-08-09T07:48:33.987Z,25.8
2022-08-09T07:54:30.294Z,26.2
2022-08-09T07:57:18.764Z,26.8
2022-08-09T08:00:49.280Z,27.2
2022-08-09T08:03:16.978Z,27.6
2022-08-09T08:06:09.240Z,27.6
2022-08-09T08:12:39.264Z,27.9
2022-08-09T08:15:13.727Z,28
2022-08-09T08:18:11.487Z,28.3
2022-08-09T08:21:11.078Z,28.2
2022-08-09T08:24:23.658Z,28.2
2022-08-09T08:27:22.831Z,28.4
2022-08-09T08:30:18.512Z,28.3
2022-08-09T08:33:53.249Z,28.4
2022-08-09T08:36:12.753Z,27.9
2022-08-09T08:39:14.940Z,27.2
2022-08-09T08:42:11.434Z,27
2022-08-09T08:45:53.758Z,27.6
2022-08-09T08:48:21.595Z,28
2022-08-09T08:51:12.250Z,28.3
2022-08-09T08:54:32.016Z,28.4
2022-08-09T08:57:17.376Z,27.7
2022-08-09T09:00:36.472Z,27.9
2022-08-09T09:03:42.223Z,28.1
2022-08-09T09:06:16.319Z,28.3
2022-08-09T09:12:36.662Z,28.4
2022-08-09T09:15:28.082Z,28.3
2022-08-09T09:18:11.544Z,28.4
2022-08-09T09:21:12.272Z,28.5
2022-08-09T09:24:28.207Z,28.3
2022-08-09T09:27:11.758Z,28.1
2022-08-09T09:30:51.653Z,27.6
2022-08-09T09:33:26.131Z,28.1
2022-08-09T09:36:31.497Z,28.6
2022-08-09T09:39:16.322Z,28.7
2022-08-09T09:42:16.309Z,29.5
2022-08-09T09:45:26.002Z,28.9
2022-08-09T09:48:12.812Z,28.9
2022-08-09T09:51:37.875Z,29.3
2022-08-09T09:54:29.654Z,29.6
2022-08-09T10:00:13.825Z,29.8
2022-08-09T10:03:24.406Z,29.8
2022-08-09T10:06:15.995Z,29.9
2022-08-09T10:09:29.186Z,30.4
2022-08-09T10:12:49.768Z,30
2022-08-09T10:15:25.732Z,29.6
2022-08-09T10:18:13.674Z,29
2022-08-09T10:21:12.003Z,28.9
2022-08-09T10:24:38.474Z,29.9
2022-08-09T10:27:45.619Z,29.7
2022-08-09T10:36:16.040Z,29
2022-08-09T10:39:29.080Z,29.6
2022-08-09T10:42:14.249Z,29.8
2022-08-09T10:45:22.220Z,29.6
2022-08-09T10:48:43.182Z,29.3
2022-08-09T10:51:10.795Z,29.7
2022-08-09T10:54:19.408Z,29.4
2022-08-09T10:57:14.351Z,28.4
2022-08-09T11:00:11.615Z,27.6
2022-08-09T11:06:11.009Z,27.7
2022-08-09T11:09:36.678Z,28.3
2022-08-09T11:12:13.576Z,28.7
2022-08-09T11:15:09.496Z,29.5
2022-08-09T11:18:20.244Z,29.6
2022-08-09T11:21:09.305Z,29.9
2022-08-09T11:24:13.486Z,30
2022-08-09T11:30:49.891Z,30.5
2022-08-09T11:33:09.282Z,29.8
2022-08-09T11:36:09.886Z,29.9
2022-08-09T11:39:13.407Z,29.3
2022-08-09T11:42:14.767Z,29.1
2022-08-09T11:45:11.340Z,29.3
2022-08-09T11:48:31.900Z,29.7
2022-08-09T11:54:42.829Z,30.2
2022-08-09T11:57:14.997Z,29.3
2022-08-09T12:00:21.665Z,28.9
2022-08-09T12:06:12.979Z,30.5
2022-08-09T12:09:25.100Z,31.6
2022-08-09T12:12:34.131Z,31.5
2022-08-09T12:15:54.499Z,31.2
2022-08-09T12:18:15.059Z,31.3
2022-08-09T12:21:52.823Z,30.6
2022-08-09T12:24:20.527Z,30.4
2022-08-09T12:30:50.920Z,29.9
2022-08-09T12:33:09.542Z,30.6
2022-08-09T12:36:35.991Z,31.1
2022-08-09T12:39:11.265Z,31.6
2022-08-09T12:42:18.524Z,31.2
2022-08-09T12:45:59.320Z,30.6
2022-08-09T12:48:20.295Z,30.3
2022-08-09T12:51:13.692Z,30.5
2022-08-09T12:54:13.093Z,30.6
2022-08-09T12:57:12.485Z,30.8
2022-08-09T13:00:23.393Z,30.9
2022-08-09T13:03:24.668Z,30.8
2022-08-09T13:06:41.118Z,31.1
2022-08-09T13:09:14.726Z,31.9
2022-08-09T13:12:11.411Z,31.3
2022-08-09T13:15:11.856Z,31
2022-08-09T13:18:31.290Z,30.1
2022-08-09T13:27:15.054Z,30.3
2022-08-09T13:33:17.039Z,30.1
2022-08-09T13:36:51.792Z,29.9
2022-08-09T13:42:18.197Z,30.3
2022-08-09T13:45:19.564Z,30.8
2022-08-09T13:48:18.928Z,30.6
2022-08-09T13:51:13.325Z,30.3
2022-08-09T13:54:15.597Z,30.3
2022-08-09T13:57:43.551Z,30.1
2022-08-09T14:00:10.395Z,29.6
2022-08-09T14:06:31.942Z,29.6
2022-08-09T14:09:12.473Z,29.5
2022-08-09T14:12:28.833Z,29.1
2022-08-09T14:18:43.354Z,27.5
2022-08-09T14:21:13.352Z,26.9
2022-08-09T14:24:53.552Z,26.4
2022-08-09T14:27:37.105Z,26.6
2022-08-09T14:30:54.268Z,26.9
2022-08-09T14:33:28.548Z,27.2
2022-08-09T14:36:45.811Z,27.8
2022-08-09T14:39:18.897Z,28.5
2022-08-09T14:42:11.389Z,29.2
2022-08-09T14:48:16.579Z,28.4
2022-08-09T14:51:14.517Z,28.2
2022-08-09T14:54:12.282Z,28
2022-08-09T14:57:10.848Z,27.9
2022-08-09T15:00:12.192Z,27.7
2022-08-09T15:03:12.721Z,27.3
2022-08-09T15:06:16.902Z,27.6
2022-08-09T15:09:11.936Z,27.6
2022-08-09T15:12:13.863Z,27.4
2022-08-09T15:15:15.170Z,27.2
2022-08-09T15:18:12.261Z,27.2
2022-08-09T15:24:33.607Z,27.5
2022-08-09T15:27:12.829Z,27.8
2022-08-09T15:36:15.484Z,27.4
2022-08-09T15:39:11.898Z,27.9
2022-08-09T15:42:12.546Z,27.8
2022-08-09T15:45:14.779Z,27.5
2022-08-09T15:48:39.481Z,27.2
2022-08-09T15:54:54.084Z,27.5
2022-08-09T15:57:14.063Z,27.4
2022-08-09T16:00:11.067Z,27.6
2022-08-09T16:03:11.677Z,27.4
2022-08-09T16:06:39.971Z,27.6
2022-08-09T16:09:13.537Z,27.7
2022-08-09T16:12:17.820Z,27.6
2022-08-09T16:18:10.473Z,27.4
2022-08-09T16:21:17.125Z,27.1
2022-08-09T16:24:36.989Z,27.1
2022-08-09T16:27:15.475Z,27.4
2022-08-09T16:30:35.001Z,27.4
2022-08-09T16:33:10.680Z,27.6
2022-08-09T16:36:29.779Z,27.7
2022-08-09T16:39:11.238Z,27.6
2022-08-09T16:42:25.938Z,27.5
2022-08-09T16:45:10.028Z,27.4
2022-08-09T16:51:23.107Z,26.9
2022-08-09T16:54:47.971Z,26.5
2022-08-09T16:57:14.670Z,26.3
2022-08-09T17:00:12.661Z,26.6
2022-08-09T17:03:25.252Z,26.7
2022-08-09T17:12:13.366Z,26.4
2022-08-09T17:18:12.816Z,26.1
2022-08-09T17:21:12.531Z,26.1
2022-08-09T17:25:02.965Z,25.9
2022-08-09T17:27:21.533Z,25.8
2022-08-09T17:30:28.054Z,25.6
2022-08-09T17:33:40.879Z,25.2
2022-08-09T17:36:14.658Z,25
2022-08-09T17:39:12.816Z,24.9
2022-08-09T17:42:42.752Z,24.7
2022-08-09T17:48:13.952Z,24.7
2022-08-09T17:51:32.287Z,24.6
2022-08-09T17:54:12.521Z,24.5
2022-08-09T18:00:16.737Z,24.3
2022-08-09T18:03:11.515Z,24.1
2022-08-09T18:06:36.316Z,24
2022-08-09T18:09:10.948Z,23.8
2022-08-09T18:15:16.843Z,23.6
2022-08-09T18:18:42.983Z,23.4
2022-08-09T18:21:41.143Z,23.3
2022-08-09T18:24:29.464Z,23.2
2022-08-09T18:28:01.911Z,23.1
2022-08-09T18:30:58.231Z,22.9
2022-08-09T18:33:25.282Z,22.8
2022-08-09T18:36:25.437Z,22.7
2022-08-09T18:39:21.514Z,22.6
2022-08-09T18:42:14.070Z,22.8
2022-08-09T18:48:10.976Z,22.5
2022-08-09T18:51:11.570Z,22.3
2022-08-09T18:54:35.441Z,22.2
2022-08-09T18:57:16.999Z,22.1
2022-08-09T19:00:22.074Z,21.9
2022-08-09T19:03:10.245Z,21.8
2022-08-09T19:06:30.067Z,21.7
2022-08-09T19:12:09.707Z,21.5
2022-08-09T19:15:16.014Z,21.4
2022-08-09T19:18:39.796Z,21.3
2022-08-09T19:21:15.321Z,21.2
2022-08-09T19:27:10.309Z,21.2
2022-08-09T19:30:38.824Z,21.2
2022-08-09T19:33:23.917Z,21.2
2022-08-09T19:36:19.160Z,21.1
2022-08-09T19:39:16.046Z,20.9
2022-08-09T19:42:19.279Z,20.7
2022-08-09T19:45:09.433Z,20.6
2022-08-09T19:48:14.942Z,20.3
2022-08-09T19:51:09.275Z,20.1
2022-08-09T19:54:15.841Z,20
2022-08-09T19:57:13.023Z,19.9
2022-08-09T20:00:20.382Z,19.8
2022-08-09T20:06:35.874Z,19.4
2022-08-09T20:09:45.951Z,19.3
2022-08-09T20:12:51.970Z,19.2
2022-08-09T20:18:14.430Z,18.6
2022-08-09T20:21:18.354Z,18.3
2022-08-09T20:24:12.189Z,18.1
2022-08-09T20:27:14.068Z,17.8
2022-08-09T20:30:11.780Z,17.5
2022-08-09T20:33:18.823Z,17.4
2022-08-09T20:36:10.696Z,17.1
2022-08-09T20:42:14.603Z,16.8
2022-08-09T20:48:22.981Z,16.4
2022-08-09T20:51:26.175Z,16.3
2022-08-09T20:54:22.322Z,16.3
2022-08-09T20:57:10.299Z,16.1
2022-08-09T21:03:24.119Z,16.1
2022-08-09T21:06:20.336Z,15.9
2022-08-09T21:09:41.697Z,15.8
2022-08-09T21:15:17.011Z,15.7
2022-08-09T21:21:59.701Z,15.7
2022-08-09T21:24:32.415Z,15.5
2022-08-09T21:27:59.842Z,15.4
2022-08-09T21:30:22.368Z,15.2
2022-08-09T21:33:12.361Z,15.1
2022-08-09T21:36:14.752Z,15
2022-08-09T21:39:28.499Z,14.7
2022-08-09T21:42:26.721Z,14.5
2022-08-09T21:45:17.898Z,14.4
2022-08-09T21:48:10.946Z,14.3
2022-08-09T21:51:45.475Z,14.5
2022-08-09T21:54:09.492Z,14.5
2022-08-09T22:00:13.249Z,14.6
2022-08-09T22:03:25.337Z,14.5
2022-08-09T22:06:09.948Z,14.5
2022-08-09T22:09:17.836Z,14.5
2022-08-09T22:12:54.398Z,14.5
2022-08-09T22:15:19.116Z,14.4
2022-08-09T22:18:20.225Z,14.4
2022-08-09T22:21:52.123Z,14.3
2022-08-09T22:24:21.251Z,14.1
2022-08-09T22:27:18.563Z,14
2022-08-09T22:30:10.479Z,13.9
2022-08-09T22:33:23.829Z,13.6
2022-08-09T22:36:21.304Z,13.3
2022-08-09T22:39:56.244Z,13.1
2022-08-09T22:42:26.012Z,12.8
2022-08-09T22:51:27.966Z,12.6
2022-08-09T22:54:15.904Z,12.5
2022-08-09T22:57:14.266Z,12.4
2022-08-09T23:00:16.296Z,12.4
2022-08-09T23:06:16.168Z,12.6
2022-08-09T23:09:09.357Z,12.6
2022-08-09T23:12:09.203Z,12.6
2022-08-09T23:15:09.129Z,12.4
2022-08-09T23:18:09.215Z,12.4
2022-08-09T23:21:10.677Z,12.2
2022-08-09T23:24:15.851Z,12.1
2022-08-09T23:27:09.167Z,12.2
2022-08-09T23:30:09.219Z,12.2
2022-08-09T23:33:09.175Z,12.4
2022-08-09T23:36:15.948Z,12.4
2022-08-09T23:39:09.385Z,12.4
2022-08-09T23:42:09.164Z,12.3
2022-08-09T23:45:38.680Z,12.3
2022-08-09T23:48:17.160Z,12.2
2022-08-09T23:51:09.225Z,12.1
2022-08-09T23:54:13.480Z,12
2022-08-09T23:57:16.575Z,11.9
